sensor_id;sensor_type;location;lat;lon;timestamp;P1;durP1;ratioP1;P2;durP2;ratioP2
12052;SDS011;6087;48.982;12.064;2023-04-15T00:01:44;5.23;;;4.60;;
12052;SDS011;6087;48.982;12.064;2023-04-15T00:04:13;5.07;;;4.57;;
12052;SDS011;6087;48.982;12.064;2023-04-15T00:06:40;5.80;;;4.50;;
12052;SDS011;6087;48.982;12.064;2023-04-15T00:09:07;5.70;;;4.77;;
12052;SDS011;6087;48.982;12.064;2023-04-15T00:11:34;5.10;;;4.60;;
12052;SDS011;6087;48.982;12.064;2023-04-15T00:14:01;4.73;;;4.27;;
12052;SDS011;6087;48.982;12.064;2023-04-15T00:16:28;4.87;;;4.47;;
12052;SDS011;6087;48.982;12.064;2023-04-15T00:18:55;4.90;;;4.40;;
12052;SDS011;6087;48.982;12.064;2023-04-15T00:21:23;4.90;;;4.40;;
12052;SDS011;6087;48.982;12.064;2023-04-15T00:23:51;4.57;;;4.17;;
12052;SDS011;6087;48.982;12.064;2023-04-15T00:26:18;5.17;;;4.47;;
12052;SDS011;6087;48.982;12.064;2023-04-15T00:28:45;4.97;;;4.57;;
12052;SDS011;6087;48.982;12.064;2023-04-15T00:31:13;4.60;;;4.20;;
12052;SDS011;6087;48.982;12.064;2023-04-15T00:33:43;5.03;;;4.07;;
12052;SDS011;6087;48.982;12.064;2023-04-15T00:36:09;4.37;;;3.97;;
12052;SDS011;6087;48.982;12.064;2023-04-15T00:38:41;5.67;;;4.50;;
12052;SDS011;6087;48.982;12.064;2023-04-15T00:41:08;4.77;;;4.20;;
12052;SDS011;6087;48.982;12.064;2023-04-15T00:43:36;4.10;;;3.70;;
12052;SDS011;6087;48.982;12.064;2023-04-15T00:46:03;4.77;;;4.10;;
12052;SDS011;6087;48.982;12.064;2023-04-15T00:48:31;4.70;;;3.93;;
12052;SDS011;6087;48.982;12.064;2023-04-15T00:51:00;5.17;;;4.67;;
12052;SDS011;6087;48.982;12.064;2023-04-15T00:53:27;4.10;;;3.80;;
12052;SDS011;6087;48.982;12.064;2023-04-15T00:55:56;3.83;;;3.53;;
12052;SDS011;6087;48.982;12.064;2023-04-15T00:58:22;4.03;;;3.70;;
12052;SDS011;6087;48.982;12.064;2023-04-15T01:00:50;4.40;;;4.00;;
12052;SDS011;6087;48.982;12.064;2023-04-15T01:03:19;4.77;;;4.37;;
12052;SDS011;6087;48.982;12.064;2023-04-15T01:05:46;4.40;;;4.00;;
12052;SDS011;6087;48.982;12.064;2023-04-15T01:08:13;4.43;;;4.00;;
12052;SDS011;6087;48.982;12.064;2023-04-15T01:10:40;4.70;;;4.27;;
12052;SDS011;6087;48.982;12.064;2023-04-15T01:13:09;5.03;;;4.20;;
12052;SDS011;6087;48.982;12.064;2023-04-15T01:15:36;5.57;;;5.03;;
12052;SDS011;6087;48.982;12.064;2023-04-15T01:18:03;4.77;;;4.37;;
12052;SDS011;6087;48.982;12.064;2023-04-15T01:20:31;4.70;;;4.20;;
12052;SDS011;6087;48.982;12.064;2023-04-15T01:22:59;5.60;;;4.87;;
12052;SDS011;6087;48.982;12.064;2023-04-15T01:25:30;5.13;;;4.30;;
12052;SDS011;6087;48.982;12.064;2023-04-15T01:27:58;5.03;;;4.53;;
12052;SDS011;6087;48.982;12.064;2023-04-15T01:30:25;4.50;;;4.10;;
12052;SDS011;6087;48.982;12.064;2023-04-15T01:32:52;6.90;;;5.07;;
12052;SDS011;6087;48.982;12.064;2023-04-15T01:35:22;7.73;;;4.50;;
12052;SDS011;6087;48.982;12.064;2023-04-15T01:37:49;5.00;;;4.50;;
12052;SDS011;6087;48.982;12.064;2023-04-15T01:40:16;6.90;;;4.87;;
12052;SDS011;6087;48.982;12.064;2023-04-15T01:42:45;6.23;;;4.90;;
12052;SDS011;6087;48.982;12.064;2023-04-15T01:45:12;4.60;;;4.17;;
12052;SDS011;6087;48.982;12.064;2023-04-15T01:47:39;5.40;;;4.57;;
12052;SDS011;6087;48.982;12.064;2023-04-15T01:50:06;6.20;;;5.00;;
12052;SDS011;6087;48.982;12.064;2023-04-15T01:52:33;5.17;;;4.77;;
12052;SDS011;6087;48.982;12.064;2023-04-15T01:55:00;5.87;;;4.57;;
12052;SDS011;6087;48.982;12.064;2023-04-15T01:57:28;5.30;;;4.80;;
12052;SDS011;6087;48.982;12.064;2023-04-15T01:59:56;5.27;;;4.77;;
12052;SDS011;6087;48.982;12.064;2023-04-15T02:02:33;5.70;;;5.10;;
12052;SDS011;6087;48.982;12.064;2023-04-15T02:05:00;5.87;;;5.37;;
12052;SDS011;6087;48.982;12.064;2023-04-15T02:07:28;5.27;;;4.73;;
12052;SDS011;6087;48.982;12.064;2023-04-15T02:09:56;6.33;;;5.23;;
12052;SDS011;6087;48.982;12.064;2023-04-15T02:12:23;6.47;;;5.33;;
12052;SDS011;6087;48.982;12.064;2023-04-15T02:14:53;6.40;;;5.80;;
12052;SDS011;6087;48.982;12.064;2023-04-15T02:17:21;5.60;;;4.93;;
12052;SDS011;6087;48.982;12.064;2023-04-15T02:19:48;5.80;;;4.40;;
12052;SDS011;6087;48.982;12.064;2023-04-15T02:22:17;6.50;;;5.13;;
12052;SDS011;6087;48.982;12.064;2023-04-15T02:24:44;6.83;;;5.87;;
12052;SDS011;6087;48.982;12.064;2023-04-15T02:27:14;6.17;;;4.83;;
12052;SDS011;6087;48.982;12.064;2023-04-15T02:29:49;5.33;;;4.83;;
12052;SDS011;6087;48.982;12.064;2023-04-15T02:32:23;7.73;;;6.03;;
12052;SDS011;6087;48.982;12.064;2023-04-15T02:34:50;6.30;;;5.70;;
12052;SDS011;6087;48.982;12.064;2023-04-15T02:37:26;6.37;;;5.77;;
12052;SDS011;6087;48.982;12.064;2023-04-15T02:39:54;7.17;;;5.20;;
12052;SDS011;6087;48.982;12.064;2023-04-15T02:42:21;5.60;;;5.10;;
12052;SDS011;6087;48.982;12.064;2023-04-15T02:44:51;6.17;;;5.57;;
12052;SDS011;6087;48.982;12.064;2023-04-15T02:47:19;5.63;;;5.13;;
12052;SDS011;6087;48.982;12.064;2023-04-15T02:49:47;5.23;;;4.73;;
12052;SDS011;6087;48.982;12.064;2023-04-15T02:52:14;5.50;;;5.00;;
12052;SDS011;6087;48.982;12.064;2023-04-15T02:54:41;5.63;;;5.03;;
12052;SDS011;6087;48.982;12.064;2023-04-15T02:57:08;5.73;;;5.17;;
12052;SDS011;6087;48.982;12.064;2023-04-15T02:59:35;5.70;;;5.10;;
12052;SDS011;6087;48.982;12.064;2023-04-15T03:02:03;6.23;;;5.63;;
12052;SDS011;6087;48.982;12.064;2023-04-15T03:04:34;6.37;;;5.40;;
12052;SDS011;6087;48.982;12.064;2023-04-15T03:07:02;5.67;;;5.10;;
12052;SDS011;6087;48.982;12.064;2023-04-15T03:09:29;5.90;;;5.40;;
12052;SDS011;6087;48.982;12.064;2023-04-15T03:11:57;6.07;;;5.30;;
12052;SDS011;6087;48.982;12.064;2023-04-15T03:14:24;6.20;;;5.60;;
12052;SDS011;6087;48.982;12.064;2023-04-15T03:16:51;6.67;;;5.67;;
12052;SDS011;6087;48.982;12.064;2023-04-15T03:19:18;5.97;;;5.30;;
12052;SDS011;6087;48.982;12.064;2023-04-15T03:21:45;6.50;;;5.50;;
12052;SDS011;6087;48.982;12.064;2023-04-15T03:24:13;6.07;;;5.47;;
12052;SDS011;6087;48.982;12.064;2023-04-15T03:26:40;7.10;;;5.90;;
12052;SDS011;6087;48.982;12.064;2023-04-15T03:29:07;7.40;;;5.83;;
12052;SDS011;6087;48.982;12.064;2023-04-15T03:31:33;7.17;;;6.23;;
12052;SDS011;6087;48.982;12.064;2023-04-15T03:34:00;6.70;;;6.07;;
12052;SDS011;6087;48.982;12.064;2023-04-15T03:36:27;6.53;;;5.93;;
12052;SDS011;6087;48.982;12.064;2023-04-15T03:38:55;7.37;;;6.67;;
12052;SDS011;6087;48.982;12.064;2023-04-15T03:41:23;6.90;;;6.20;;
12052;SDS011;6087;48.982;12.064;2023-04-15T03:43:50;7.87;;;7.00;;
12052;SDS011;6087;48.982;12.064;2023-04-15T03:46:17;7.63;;;6.93;;
12052;SDS011;6087;48.982;12.064;2023-04-15T03:48:45;11.60;;;7.13;;
12052;SDS011;6087;48.982;12.064;2023-04-15T03:51:12;7.87;;;6.77;;
12052;SDS011;6087;48.982;12.064;2023-04-15T03:53:39;8.30;;;6.80;;
12052;SDS011;6087;48.982;12.064;2023-04-15T03:56:06;8.80;;;7.07;;
12052;SDS011;6087;48.982;12.064;2023-04-15T03:58:35;8.07;;;7.17;;
12052;SDS011;6087;48.982;12.064;2023-04-15T04:01:01;8.87;;;7.03;;
12052;SDS011;6087;48.982;12.064;2023-04-15T04:03:34;9.13;;;6.67;;
12052;SDS011;6087;48.982;12.064;2023-04-15T04:06:01;9.67;;;7.57;;
12052;SDS011;6087;48.982;12.064;2023-04-15T04:08:28;9.87;;;7.23;;
12052;SDS011;6087;48.982;12.064;2023-04-15T04:10:55;9.53;;;7.60;;
12052;SDS011;6087;48.982;12.064;2023-04-15T04:13:22;7.67;;;6.73;;
12052;SDS011;6087;48.982;12.064;2023-04-15T04:15:50;9.17;;;7.07;;
12052;SDS011;6087;48.982;12.064;2023-04-15T04:18:17;9.17;;;6.90;;
12052;SDS011;6087;48.982;12.064;2023-04-15T04:20:44;7.83;;;7.03;;
12052;SDS011;6087;48.982;12.064;2023-04-15T04:23:11;8.23;;;6.60;;
12052;SDS011;6087;48.982;12.064;2023-04-15T04:25:38;7.90;;;7.13;;
12052;SDS011;6087;48.982;12.064;2023-04-15T04:28:05;7.87;;;6.83;;
12052;SDS011;6087;48.982;12.064;2023-04-15T04:30:35;8.03;;;7.23;;
12052;SDS011;6087;48.982;12.064;2023-04-15T04:33:04;8.43;;;7.20;;
12052;SDS011;6087;48.982;12.064;2023-04-15T04:35:31;8.47;;;7.27;;
12052;SDS011;6087;48.982;12.064;2023-04-15T04:38:01;9.07;;;6.97;;
12052;SDS011;6087;48.982;12.064;2023-04-15T04:40:28;8.60;;;7.70;;
12052;SDS011;6087;48.982;12.064;2023-04-15T04:42:55;8.43;;;7.57;;
12052;SDS011;6087;48.982;12.064;2023-04-15T04:45:22;8.03;;;7.13;;
12052;SDS011;6087;48.982;12.064;2023-04-15T04:47:49;9.40;;;7.57;;
12052;SDS011;6087;48.982;12.064;2023-04-15T04:50:17;8.10;;;7.27;;
12052;SDS011;6087;48.982;12.064;2023-04-15T04:52:44;10.33;;;7.53;;
12052;SDS011;6087;48.982;12.064;2023-04-15T04:55:11;8.63;;;7.33;;
12052;SDS011;6087;48.982;12.064;2023-04-15T04:57:38;9.37;;;7.60;;
12052;SDS011;6087;48.982;12.064;2023-04-15T05:00:05;10.60;;;7.07;;
12052;SDS011;6087;48.982;12.064;2023-04-15T05:02:33;8.40;;;7.33;;
12052;SDS011;6087;48.982;12.064;2023-04-15T05:05:00;11.90;;;8.03;;
12052;SDS011;6087;48.982;12.064;2023-04-15T05:07:29;7.80;;;7.00;;
12052;SDS011;6087;48.982;12.064;2023-04-15T05:09:55;10.43;;;7.27;;
12052;SDS011;6087;48.982;12.064;2023-04-15T05:12:22;9.93;;;7.17;;
12052;SDS011;6087;48.982;12.064;2023-04-15T05:14:49;7.93;;;6.97;;
12052;SDS011;6087;48.982;12.064;2023-04-15T05:17:22;8.30;;;7.10;;
12052;SDS011;6087;48.982;12.064;2023-04-15T05:19:52;8.77;;;7.40;;
12052;SDS011;6087;48.982;12.064;2023-04-15T05:22:22;9.90;;;7.10;;
12052;SDS011;6087;48.982;12.064;2023-04-15T05:24:50;8.37;;;6.53;;
12052;SDS011;6087;48.982;12.064;2023-04-15T05:27:17;7.23;;;6.53;;
12052;SDS011;6087;48.982;12.064;2023-04-15T05:29:44;8.13;;;6.30;;
12052;SDS011;6087;48.982;12.064;2023-04-15T05:32:14;6.27;;;5.67;;
12052;SDS011;6087;48.982;12.064;2023-04-15T05:34:41;8.53;;;6.80;;
12052;SDS011;6087;48.982;12.064;2023-04-15T05:37:08;7.20;;;6.47;;
12052;SDS011;6087;48.982;12.064;2023-04-15T05:39:35;7.83;;;5.77;;
12052;SDS011;6087;48.982;12.064;2023-04-15T05:42:09;5.37;;;4.87;;
12052;SDS011;6087;48.982;12.064;2023-04-15T05:44:38;5.73;;;5.13;;
12052;SDS011;6087;48.982;12.064;2023-04-15T05:47:05;6.97;;;4.90;;
12052;SDS011;6087;48.982;12.064;2023-04-15T05:49:33;5.87;;;4.93;;
12052;SDS011;6087;48.982;12.064;2023-04-15T05:52:00;5.37;;;4.80;;
12052;SDS011;6087;48.982;12.064;2023-04-15T05:54:27;5.23;;;4.80;;
12052;SDS011;6087;48.982;12.064;2023-04-15T05:56:54;6.20;;;5.20;;
12052;SDS011;6087;48.982;12.064;2023-04-15T05:59:23;6.60;;;5.27;;
12052;SDS011;6087;48.982;12.064;2023-04-15T06:01:50;5.30;;;4.80;;
12052;SDS011;6087;48.982;12.064;2023-04-15T06:04:17;5.10;;;4.60;;
12052;SDS011;6087;48.982;12.064;2023-04-15T06:06:44;5.00;;;4.60;;
12052;SDS011;6087;48.982;12.064;2023-04-15T06:09:12;5.27;;;4.77;;
12052;SDS011;6087;48.982;12.064;2023-04-15T06:11:39;5.00;;;4.50;;
12052;SDS011;6087;48.982;12.064;2023-04-15T06:14:06;7.40;;;4.80;;
12052;SDS011;6087;48.982;12.064;2023-04-15T06:16:34;5.30;;;4.80;;
12052;SDS011;6087;48.982;12.064;2023-04-15T06:19:01;5.30;;;4.43;;
12052;SDS011;6087;48.982;12.064;2023-04-15T06:21:28;5.10;;;4.63;;
12052;SDS011;6087;48.982;12.064;2023-04-15T06:23:57;5.33;;;4.50;;
12052;SDS011;6087;48.982;12.064;2023-04-15T06:26:27;4.00;;;3.60;;
12052;SDS011;6087;48.982;12.064;2023-04-15T06:28:54;5.33;;;3.93;;
12052;SDS011;6087;48.982;12.064;2023-04-15T06:31:21;5.43;;;4.93;;
12052;SDS011;6087;48.982;12.064;2023-04-15T06:33:49;3.67;;;3.33;;
12052;SDS011;6087;48.982;12.064;2023-04-15T06:36:16;4.07;;;3.67;;
12052;SDS011;6087;48.982;12.064;2023-04-15T06:38:43;4.37;;;3.40;;
12052;SDS011;6087;48.982;12.064;2023-04-15T06:41:12;4.93;;;3.87;;
12052;SDS011;6087;48.982;12.064;2023-04-15T06:43:39;4.97;;;3.90;;
12052;SDS011;6087;48.982;12.064;2023-04-15T06:46:07;3.90;;;3.50;;
12052;SDS011;6087;48.982;12.064;2023-04-15T06:48:37;3.87;;;3.20;;
12052;SDS011;6087;48.982;12.064;2023-04-15T06:51:08;3.87;;;3.33;;
12052;SDS011;6087;48.982;12.064;2023-04-15T06:53:35;5.03;;;3.00;;
12052;SDS011;6087;48.982;12.064;2023-04-15T06:56:05;3.40;;;3.10;;
12052;SDS011;6087;48.982;12.064;2023-04-15T06:58:33;4.63;;;3.23;;
12052;SDS011;6087;48.982;12.064;2023-04-15T07:01:00;3.93;;;3.20;;
12052;SDS011;6087;48.982;12.064;2023-04-15T07:03:30;4.00;;;3.53;;
12052;SDS011;6087;48.982;12.064;2023-04-15T07:05:59;3.27;;;3.07;;
12052;SDS011;6087;48.982;12.064;2023-04-15T07:08:31;3.93;;;3.63;;
12052;SDS011;6087;48.982;12.064;2023-04-15T07:10:58;4.83;;;3.73;;
12052;SDS011;6087;48.982;12.064;2023-04-15T07:13:25;3.77;;;3.10;;
12052;SDS011;6087;48.982;12.064;2023-04-15T07:15:52;3.40;;;3.10;;
12052;SDS011;6087;48.982;12.064;2023-04-15T07:18:19;3.67;;;3.37;;
12052;SDS011;6087;48.982;12.064;2023-04-15T07:20:46;3.60;;;3.30;;
12052;SDS011;6087;48.982;12.064;2023-04-15T07:23:13;4.70;;;3.70;;
12052;SDS011;6087;48.982;12.064;2023-04-15T07:25:41;3.77;;;3.37;;
12052;SDS011;6087;48.982;12.064;2023-04-15T07:28:08;4.10;;;3.70;;
12052;SDS011;6087;48.982;12.064;2023-04-15T07:30:35;4.13;;;3.73;;
12052;SDS011;6087;48.982;12.064;2023-04-15T07:33:03;5.70;;;3.63;;
12052;SDS011;6087;48.982;12.064;2023-04-15T07:35:31;4.63;;;3.30;;
12052;SDS011;6087;48.982;12.064;2023-04-15T07:37:57;4.63;;;4.03;;
12052;SDS011;6087;48.982;12.064;2023-04-15T07:40:24;4.17;;;3.27;;
12052;SDS011;6087;48.982;12.064;2023-04-15T07:42:53;4.80;;;3.60;;
12052;SDS011;6087;48.982;12.064;2023-04-15T07:45:22;4.37;;;3.10;;
12052;SDS011;6087;48.982;12.064;2023-04-15T07:47:49;4.03;;;3.63;;
12052;SDS011;6087;48.982;12.064;2023-04-15T07:50:16;3.97;;;3.67;;
12052;SDS011;6087;48.982;12.064;2023-04-15T07:52:43;3.37;;;3.07;;
12052;SDS011;6087;48.982;12.064;2023-04-15T07:55:11;4.00;;;3.50;;
12052;SDS011;6087;48.982;12.064;2023-04-15T07:57:38;3.50;;;3.20;;
12052;SDS011;6087;48.982;12.064;2023-04-15T08:00:07;4.03;;;3.73;;
12052;SDS011;6087;48.982;12.064;2023-04-15T08:02:38;3.60;;;3.30;;
12052;SDS011;6087;48.982;12.064;2023-04-15T08:05:05;3.30;;;3.00;;
12052;SDS011;6087;48.982;12.064;2023-04-15T08:07:33;4.00;;;3.57;;
12052;SDS011;6087;48.982;12.064;2023-04-15T08:10:00;4.57;;;3.57;;
12052;SDS011;6087;48.982;12.064;2023-04-15T08:12:30;6.23;;;3.37;;
12052;SDS011;6087;48.982;12.064;2023-04-15T08:14:57;4.60;;;3.20;;
12052;SDS011;6087;48.982;12.064;2023-04-15T08:17:26;3.27;;;2.93;;
12052;SDS011;6087;48.982;12.064;2023-04-15T08:19:53;2.63;;;2.43;;
12052;SDS011;6087;48.982;12.064;2023-04-15T08:22:21;3.40;;;3.10;;
12052;SDS011;6087;48.982;12.064;2023-04-15T08:24:48;4.03;;;3.20;;
12052;SDS011;6087;48.982;12.064;2023-04-15T08:27:15;3.10;;;2.60;;
12052;SDS011;6087;48.982;12.064;2023-04-15T08:29:42;3.80;;;2.83;;
12052;SDS011;6087;48.982;12.064;2023-04-15T08:32:13;3.00;;;2.70;;
12052;SDS011;6087;48.982;12.064;2023-04-15T08:34:41;3.80;;;3.00;;
12052;SDS011;6087;48.982;12.064;2023-04-15T08:37:10;4.73;;;2.90;;
12052;SDS011;6087;48.982;12.064;2023-04-15T08:39:40;3.40;;;2.50;;
12052;SDS011;6087;48.982;12.064;2023-04-15T08:42:31;3.40;;;3.10;;
12052;SDS011;6087;48.982;12.064;2023-04-15T08:45:02;3.53;;;3.20;;
12052;SDS011;6087;48.982;12.064;2023-04-15T08:47:30;2.80;;;2.60;;
12052;SDS011;6087;48.982;12.064;2023-04-15T08:50:03;3.10;;;2.80;;
12052;SDS011;6087;48.982;12.064;2023-04-15T08:52:33;4.07;;;3.13;;
12052;SDS011;6087;48.982;12.064;2023-04-15T08:55:01;3.17;;;2.70;;
12052;SDS011;6087;48.982;12.064;2023-04-15T08:57:29;4.50;;;2.90;;
12052;SDS011;6087;48.982;12.064;2023-04-15T08:59:57;3.93;;;2.87;;
12052;SDS011;6087;48.982;12.064;2023-04-15T09:02:25;4.80;;;3.20;;
12052;SDS011;6087;48.982;12.064;2023-04-15T09:04:52;3.97;;;2.40;;
12052;SDS011;6087;48.982;12.064;2023-04-15T09:07:20;2.80;;;2.60;;
12052;SDS011;6087;48.982;12.064;2023-04-15T09:09:47;2.87;;;2.30;;
12052;SDS011;6087;48.982;12.064;2023-04-15T09:12:18;1.77;;;1.67;;
12052;SDS011;6087;48.982;12.064;2023-04-15T09:14:47;2.80;;;2.60;;
12052;SDS011;6087;48.982;12.064;2023-04-15T09:17:17;2.00;;;1.90;;
12052;SDS011;6087;48.982;12.064;2023-04-15T09:19:45;2.23;;;2.03;;
12052;SDS011;6087;48.982;12.064;2023-04-15T09:22:12;2.20;;;1.60;;
12052;SDS011;6087;48.982;12.064;2023-04-15T09:24:42;2.80;;;1.43;;
12052;SDS011;6087;48.982;12.064;2023-04-15T09:27:08;1.60;;;1.50;;
12052;SDS011;6087;48.982;12.064;2023-04-15T09:29:36;1.63;;;1.50;;
12052;SDS011;6087;48.982;12.064;2023-04-15T09:32:10;2.23;;;1.60;;
12052;SDS011;6087;48.982;12.064;2023-04-15T09:34:38;2.17;;;1.57;;
12052;SDS011;6087;48.982;12.064;2023-04-15T09:37:05;1.70;;;1.53;;
12052;SDS011;6087;48.982;12.064;2023-04-15T09:42:18;1.20;;;1.20;;
12052;SDS011;6087;48.982;12.064;2023-04-15T09:44:48;1.40;;;1.30;;
12052;SDS011;6087;48.982;12.064;2023-04-15T09:47:28;3.07;;;1.87;;
12052;SDS011;6087;48.982;12.064;2023-04-15T09:50:02;1.63;;;1.53;;
12052;SDS011;6087;48.982;12.064;2023-04-15T09:52:29;2.83;;;1.70;;
12052;SDS011;6087;48.982;12.064;2023-04-15T09:54:58;2.80;;;1.60;;
12052;SDS011;6087;48.982;12.064;2023-04-15T09:57:31;1.50;;;1.40;;
12052;SDS011;6087;48.982;12.064;2023-04-15T10:00:00;2.03;;;1.77;;
12052;SDS011;6087;48.982;12.064;2023-04-15T10:02:28;1.80;;;1.70;;
12052;SDS011;6087;48.982;12.064;2023-04-15T10:04:56;2.07;;;1.87;;
12052;SDS011;6087;48.982;12.064;2023-04-15T10:07:23;1.63;;;1.17;;
12052;SDS011;6087;48.982;12.064;2023-04-15T10:09:51;1.60;;;1.10;;
12052;SDS011;6087;48.982;12.064;2023-04-15T10:12:20;1.17;;;1.00;;
12052;SDS011;6087;48.982;12.064;2023-04-15T10:14:50;1.40;;;1.23;;
12052;SDS011;6087;48.982;12.064;2023-04-15T10:17:21;1.40;;;1.30;;
12052;SDS011;6087;48.982;12.064;2023-04-15T10:19:48;1.60;;;1.50;;
12052;SDS011;6087;48.982;12.064;2023-04-15T10:22:25;1.30;;;1.20;;
12052;SDS011;6087;48.982;12.064;2023-04-15T10:24:54;1.30;;;1.20;;
12052;SDS011;6087;48.982;12.064;2023-04-15T10:27:23;1.43;;;1.20;;
12052;SDS011;6087;48.982;12.064;2023-04-15T10:29:50;2.20;;;1.50;;
12052;SDS011;6087;48.982;12.064;2023-04-15T10:32:18;2.30;;;1.10;;
12052;SDS011;6087;48.982;12.064;2023-04-15T10:34:47;1.23;;;1.13;;
12052;SDS011;6087;48.982;12.064;2023-04-15T10:37:19;1.10;;;1.00;;
12052;SDS011;6087;48.982;12.064;2023-04-15T10:39:47;0.90;;;0.90;;
12052;SDS011;6087;48.982;12.064;2023-04-15T10:42:17;1.00;;;1.00;;
12052;SDS011;6087;48.982;12.064;2023-04-15T10:44:47;0.83;;;0.83;;
12052;SDS011;6087;48.982;12.064;2023-04-15T10:47:16;1.20;;;1.10;;
12052;SDS011;6087;48.982;12.064;2023-04-15T10:49:45;2.67;;;1.30;;
12052;SDS011;6087;48.982;12.064;2023-04-15T10:52:13;0.93;;;0.93;;
12052;SDS011;6087;48.982;12.064;2023-04-15T10:54:41;1.50;;;1.13;;
12052;SDS011;6087;48.982;12.064;2023-04-15T10:57:13;1.30;;;1.20;;
12052;SDS011;6087;48.982;12.064;2023-04-15T11:00:02;1.10;;;1.00;;
12052;SDS011;6087;48.982;12.064;2023-04-15T11:02:43;2.60;;;1.00;;
12052;SDS011;6087;48.982;12.064;2023-04-15T11:05:12;0.90;;;0.90;;
12052;SDS011;6087;48.982;12.064;2023-04-15T11:07:40;0.60;;;0.60;;
12052;SDS011;6087;48.982;12.064;2023-04-15T11:13:19;1.20;;;1.10;;
12052;SDS011;6087;48.982;12.064;2023-04-15T11:15:53;1.00;;;1.00;;
12052;SDS011;6087;48.982;12.064;2023-04-15T11:18:25;0.87;;;0.87;;
12052;SDS011;6087;48.982;12.064;2023-04-15T11:20:55;0.73;;;0.73;;
12052;SDS011;6087;48.982;12.064;2023-04-15T11:23:27;0.67;;;0.67;;
12052;SDS011;6087;48.982;12.064;2023-04-15T11:25:59;0.60;;;0.60;;
12052;SDS011;6087;48.982;12.064;2023-04-15T11:28:30;0.80;;;0.80;;
12052;SDS011;6087;48.982;12.064;2023-04-15T11:31:02;1.00;;;0.80;;
12052;SDS011;6087;48.982;12.064;2023-04-15T11:33:32;0.87;;;0.87;;
12052;SDS011;6087;48.982;12.064;2023-04-15T11:35:59;0.73;;;0.70;;
12052;SDS011;6087;48.982;12.064;2023-04-15T11:38:27;0.80;;;0.80;;
12052;SDS011;6087;48.982;12.064;2023-04-15T11:40:55;0.90;;;0.90;;
12052;SDS011;6087;48.982;12.064;2023-04-15T11:43:22;0.60;;;0.60;;
12052;SDS011;6087;48.982;12.064;2023-04-15T11:45:50;1.03;;;0.80;;
12052;SDS011;6087;48.982;12.064;2023-04-15T11:48:20;0.70;;;0.70;;
12052;SDS011;6087;48.982;12.064;2023-04-15T11:50:51;0.70;;;0.70;;
12052;SDS011;6087;48.982;12.064;2023-04-15T11:53:20;0.60;;;0.60;;
12052;SDS011;6087;48.982;12.064;2023-04-15T11:55:48;1.67;;;1.07;;
12052;SDS011;6087;48.982;12.064;2023-04-15T11:58:17;0.60;;;0.60;;
12052;SDS011;6087;48.982;12.064;2023-04-15T12:00:46;0.50;;;0.50;;
12052;SDS011;6087;48.982;12.064;2023-04-15T12:03:19;0.40;;;0.40;;
12052;SDS011;6087;48.982;12.064;2023-04-15T12:08:50;0.70;;;0.70;;
12052;SDS011;6087;48.982;12.064;2023-04-15T12:11:18;0.83;;;0.80;;
12052;SDS011;6087;48.982;12.064;2023-04-15T12:13:46;0.70;;;0.70;;
12052;SDS011;6087;48.982;12.064;2023-04-15T12:16:17;0.73;;;0.60;;
12052;SDS011;6087;48.982;12.064;2023-04-15T12:18:51;0.50;;;0.50;;
12052;SDS011;6087;48.982;12.064;2023-04-15T12:21:20;0.60;;;0.60;;
12052;SDS011;6087;48.982;12.064;2023-04-15T12:23:48;0.47;;;0.47;;
12052;SDS011;6087;48.982;12.064;2023-04-15T12:26:24;0.90;;;0.70;;
12052;SDS011;6087;48.982;12.064;2023-04-15T12:28:53;1.03;;;0.60;;
12052;SDS011;6087;48.982;12.064;2023-04-15T12:31:20;0.53;;;0.53;;
12052;SDS011;6087;48.982;12.064;2023-04-15T12:33:47;0.60;;;0.60;;
12052;SDS011;6087;48.982;12.064;2023-04-15T12:36:16;0.80;;;0.77;;
12052;SDS011;6087;48.982;12.064;2023-04-15T12:38:43;0.70;;;0.70;;
12052;SDS011;6087;48.982;12.064;2023-04-15T12:41:10;0.60;;;0.60;;
12052;SDS011;6087;48.982;12.064;2023-04-15T12:43:37;1.70;;;0.60;;
12052;SDS011;6087;48.982;12.064;2023-04-15T12:46:04;0.70;;;0.70;;
12052;SDS011;6087;48.982;12.064;2023-04-15T12:48:32;0.80;;;0.80;;
12052;SDS011;6087;48.982;12.064;2023-04-15T12:50:59;0.90;;;0.90;;
12052;SDS011;6087;48.982;12.064;2023-04-15T12:53:27;0.70;;;0.70;;
12052;SDS011;6087;48.982;12.064;2023-04-15T12:55:55;0.97;;;0.80;;
12052;SDS011;6087;48.982;12.064;2023-04-15T12:58:22;1.13;;;1.07;;
12052;SDS011;6087;48.982;12.064;2023-04-15T13:00:49;0.83;;;0.83;;
12052;SDS011;6087;48.982;12.064;2023-04-15T13:03:16;0.67;;;0.67;;
12052;SDS011;6087;48.982;12.064;2023-04-15T13:05:43;0.70;;;0.70;;
12052;SDS011;6087;48.982;12.064;2023-04-15T13:08:10;0.60;;;0.60;;
12052;SDS011;6087;48.982;12.064;2023-04-15T13:10:38;0.90;;;0.90;;
12052;SDS011;6087;48.982;12.064;2023-04-15T13:13:06;0.97;;;0.80;;
12052;SDS011;6087;48.982;12.064;2023-04-15T13:15:33;2.13;;;0.80;;
12052;SDS011;6087;48.982;12.064;2023-04-15T13:18:00;0.60;;;0.60;;
12052;SDS011;6087;48.982;12.064;2023-04-15T13:20:27;0.77;;;0.77;;
12052;SDS011;6087;48.982;12.064;2023-04-15T13:22:54;1.40;;;0.60;;
12052;SDS011;6087;48.982;12.064;2023-04-15T13:25:21;0.80;;;0.80;;
12052;SDS011;6087;48.982;12.064;2023-04-15T13:27:50;0.87;;;0.70;;
12052;SDS011;6087;48.982;12.064;2023-04-15T13:30:17;0.80;;;0.80;;
12052;SDS011;6087;48.982;12.064;2023-04-15T13:32:44;2.00;;;1.00;;
12052;SDS011;6087;48.982;12.064;2023-04-15T13:35:10;1.47;;;0.73;;
12052;SDS011;6087;48.982;12.064;2023-04-15T13:37:37;0.70;;;0.70;;
12052;SDS011;6087;48.982;12.064;2023-04-15T13:40:05;1.30;;;1.20;;
12052;SDS011;6087;48.982;12.064;2023-04-15T13:42:32;0.80;;;0.80;;
12052;SDS011;6087;48.982;12.064;2023-04-15T13:45:05;0.80;;;0.80;;
12052;SDS011;6087;48.982;12.064;2023-04-15T13:47:33;1.17;;;0.73;;
12052;SDS011;6087;48.982;12.064;2023-04-15T13:50:00;0.77;;;0.77;;
12052;SDS011;6087;48.982;12.064;2023-04-15T13:52:30;0.83;;;0.83;;
12052;SDS011;6087;48.982;12.064;2023-04-15T13:54:57;2.17;;;0.97;;
12052;SDS011;6087;48.982;12.064;2023-04-15T13:57:24;1.10;;;1.10;;
12052;SDS011;6087;48.982;12.064;2023-04-15T13:59:51;0.90;;;0.90;;
12052;SDS011;6087;48.982;12.064;2023-04-15T14:02:20;0.60;;;0.60;;
12052;SDS011;6087;48.982;12.064;2023-04-15T14:04:48;0.70;;;0.70;;
12052;SDS011;6087;48.982;12.064;2023-04-15T14:07:15;1.10;;;1.00;;
12052;SDS011;6087;48.982;12.064;2023-04-15T14:09:42;1.90;;;1.60;;
12052;SDS011;6087;48.982;12.064;2023-04-15T14:12:09;1.90;;;1.40;;
12052;SDS011;6087;48.982;12.064;2023-04-15T14:14:36;2.00;;;1.80;;
12052;SDS011;6087;48.982;12.064;2023-04-15T14:17:03;2.37;;;1.57;;
12052;SDS011;6087;48.982;12.064;2023-04-15T14:19:32;2.03;;;1.83;;
12052;SDS011;6087;48.982;12.064;2023-04-15T14:22:00;1.20;;;1.10;;
12052;SDS011;6087;48.982;12.064;2023-04-15T14:24:27;1.40;;;1.30;;
12052;SDS011;6087;48.982;12.064;2023-04-15T14:26:54;1.40;;;1.30;;
12052;SDS011;6087;48.982;12.064;2023-04-15T14:29:21;1.57;;;1.47;;
12052;SDS011;6087;48.982;12.064;2023-04-15T14:31:48;1.80;;;1.50;;
12052;SDS011;6087;48.982;12.064;2023-04-15T14:34:15;3.00;;;1.50;;
12052;SDS011;6087;48.982;12.064;2023-04-15T14:36:44;1.67;;;1.53;;
12052;SDS011;6087;48.982;12.064;2023-04-15T14:39:11;1.70;;;1.60;;
12052;SDS011;6087;48.982;12.064;2023-04-15T14:41:39;1.30;;;1.20;;
12052;SDS011;6087;48.982;12.064;2023-04-15T14:44:06;1.53;;;1.43;;
12052;SDS011;6087;48.982;12.064;2023-04-15T14:46:35;1.60;;;1.50;;
12052;SDS011;6087;48.982;12.064;2023-04-15T14:49:06;1.10;;;1.10;;
12052;SDS011;6087;48.982;12.064;2023-04-15T14:51:33;1.50;;;1.40;;
12052;SDS011;6087;48.982;12.064;2023-04-15T14:54:01;1.43;;;1.33;;
12052;SDS011;6087;48.982;12.064;2023-04-15T14:56:28;1.60;;;1.40;;
12052;SDS011;6087;48.982;12.064;2023-04-15T14:58:56;2.00;;;1.90;;
12052;SDS011;6087;48.982;12.064;2023-04-15T15:01:22;1.73;;;1.63;;
12052;SDS011;6087;48.982;12.064;2023-04-15T15:03:49;1.80;;;1.70;;